Time,TemperatureF,DewpointF,PressureIn,WindDirection,WindDirectionDegrees,WindSpeedMPH,WindSpeedGustMPH,Humidity,HourlyPrecipIn,Conditions,Clouds,dailyrainin,SolarRadiationWatts/m^2,SoftwareType,DateUTC
2013-03-24 00:02:00,24.0,17.0,-100.00,NNE,20,4.0,6.0,75,0.00,,,0.06,1.000000,,2013-03-24 05:02:00,
2013-03-24 00:12:00,24.0,17.0,-100.00,NNE,20,4.0,6.0,75,0.00,,,0.06,1.000000,,2013-03-24 05:12:00,
2013-03-24 00:22:00,24.0,17.0,-100.00,NNE,20,4.0,6.0,75,0.00,,,0.06,1.000000,,2013-03-24 05:22:00,
2013-03-24 00:32:00,24.0,17.0,-100.00,NNE,20,4.0,6.0,75,0.00,,,0.06,1.000000,,2013-03-24 05:32:00,
2013-03-24 01:02:00,24.0,17.0,-100.00,NE,52,4.0,6.0,75,0.00,,,0.06,1.000000,,2013-03-24 06:02:00,
2013-03-24 01:12:00,24.0,17.0,-100.00,NE,52,4.0,6.0,75,0.00,,,0.06,1.000000,,2013-03-24 06:12:00,
2013-03-24 01:22:00,24.0,17.0,-100.00,NE,52,4.0,6.0,75,0.00,,,0.06,1.000000,,2013-03-24 06:22:00,
2013-03-24 01:32:00,24.0,17.0,-100.00,NE,52,4.0,6.0,75,0.00,,,0.06,1.000000,,2013-03-24 06:32:00,
2013-03-24 02:02:00,23.0,17.0,-100.00,NE,46,4.0,8.0,79,0.00,,,0.06,1.000000,,2013-03-24 07:02:00,
2013-03-24 02:12:00,23.0,17.0,-100.00,NE,46,4.0,8.0,79,0.00,,,0.06,1.000000,,2013-03-24 07:12:00,
2013-03-24 02:22:00,23.0,17.0,-100.00,NE,46,4.0,8.0,79,0.00,,,0.06,1.000000,,2013-03-24 07:22:00,
2013-03-24 02:32:00,23.0,17.0,-100.00,NE,46,4.0,8.0,79,0.00,,,0.06,1.000000,,2013-03-24 07:32:00,
2013-03-24 03:03:00,23.0,17.0,-100.00,ENE,67,5.0,12.0,77,0.00,,,0.06,1.000000,,2013-03-24 08:03:00,
2013-03-24 03:12:00,23.0,17.0,-100.00,ENE,67,5.0,12.0,77,0.00,,,0.06,1.000000,,2013-03-24 08:12:00,
2013-03-24 03:22:00,23.0,17.0,-100.00,ENE,67,5.0,12.0,77,0.00,,,0.06,1.000000,,2013-03-24 08:22:00,
2013-03-24 03:32:00,23.0,17.0,-100.00,ENE,67,5.0,12.0,77,0.00,,,0.06,1.000000,,2013-03-24 08:32:00,
2013-03-24 04:02:00,23.0,17.0,-100.00,ENE,65,5.0,9.0,78,0.00,,,0.06,1.000000,,2013-03-24 09:02:00,
2013-03-24 04:12:00,23.0,17.0,-100.00,ENE,65,5.0,9.0,78,0.00,,,0.06,1.000000,,2013-03-24 09:12:00,
2013-03-24 04:22:00,23.0,17.0,-100.00,ENE,65,5.0,9.0,78,0.00,,,0.06,1.000000,,2013-03-24 09:22:00,
2013-03-24 04:33:00,23.0,17.0,-100.00,ENE,65,5.0,9.0,78,0.00,,,0.06,1.000000,,2013-03-24 09:33:00,
2013-03-24 05:03:00,23.0,16.0,-100.00,ENE,67,3.0,9.0,74,0.00,,,0.06,1.000000,,2013-03-24 10:03:00,
2013-03-24 05:12:00,23.0,16.0,-100.00,ENE,67,3.0,9.0,74,0.00,,,0.06,1.000000,,2013-03-24 10:12:00,
2013-03-24 05:22:00,23.0,16.0,-100.00,ENE,67,3.0,9.0,74,0.00,,,0.06,1.000000,,2013-03-24 10:22:00,
2013-03-24 05:32:00,23.0,16.0,-100.00,ENE,67,3.0,9.0,74,0.00,,,0.06,1.000000,,2013-03-24 10:32:00,
2013-03-24 06:03:00,22.0,16.0,-100.00,NNE,33,2.0,3.0,77,0.00,,,0.06,1.000000,,2013-03-24 11:03:00,
2013-03-24 06:12:00,22.0,16.0,-100.00,NNE,33,2.0,3.0,77,0.00,,,0.06,1.000000,,2013-03-24 11:12:00,
2013-03-24 06:22:00,22.0,16.0,-100.00,NNE,33,2.0,3.0,77,0.00,,,0.06,1.000000,,2013-03-24 11:22:00,
2013-03-24 06:33:00,22.0,16.0,-100.00,NNE,33,2.0,3.0,77,0.00,,,0.06,1.000000,,2013-03-24 11:33:00,
2013-03-24 07:03:00,23.0,17.0,-100.00,NE,54,4.0,6.0,77,0.00,,,0.06,1.000000,,2013-03-24 12:03:00,
2013-03-24 07:12:00,23.0,17.0,-100.00,NE,54,4.0,6.0,77,0.00,,,0.06,1.000000,,2013-03-24 12:12:00,
2013-03-24 07:22:00,23.0,17.0,-100.00,NE,54,4.0,6.0,77,0.00,,,0.06,1.000000,,2013-03-24 12:22:00,
2013-03-24 07:32:00,23.0,17.0,-100.00,NE,54,4.0,6.0,77,0.00,,,0.06,1.000000,,2013-03-24 12:32:00,
2013-03-24 08:02:00,24.0,18.0,-100.00,NE,44,3.0,8.0,78,0.00,,,0.06,6.000000,,2013-03-24 13:02:00,
2013-03-24 08:12:00,24.0,18.0,-100.00,NE,44,3.0,8.0,78,0.00,,,0.06,6.000000,,2013-03-24 13:12:00,
2013-03-24 08:22:00,24.0,18.0,-100.00,NE,44,3.0,8.0,78,0.00,,,0.06,6.000000,,2013-03-24 13:22:00,
2013-03-24 08:32:00,24.0,18.0,-100.00,NE,44,3.0,8.0,78,0.00,,,0.06,6.000000,,2013-03-24 13:32:00,
2013-03-24 09:02:00,24.0,18.0,-100.00,NNE,33,3.0,5.0,76,0.00,,,0.06,33.000000,,2013-03-24 14:02:00,
2013-03-24 09:12:00,24.0,18.0,-100.00,NNE,33,3.0,5.0,76,0.00,,,0.06,33.000000,,2013-03-24 14:12:00,
2013-03-24 09:22:00,24.0,18.0,-100.00,NNE,33,3.0,5.0,76,0.00,,,0.06,33.000000,,2013-03-24 14:22:00,
2013-03-24 09:32:00,24.0,18.0,-100.00,NNE,33,3.0,5.0,76,0.00,,,0.06,33.000000,,2013-03-24 14:32:00,
2013-03-24 10:02:00,26.0,19.0,-100.00,NE,45,5.0,9.0,76,0.00,,,0.06,80.000000,,2013-03-24 15:02:00,
2013-03-24 10:12:00,26.0,19.0,-100.00,NE,45,5.0,9.0,76,0.00,,,0.06,80.000000,,2013-03-24 15:12:00,
2013-03-24 10:22:00,26.0,19.0,-100.00,NE,45,5.0,9.0,76,0.00,,,0.06,80.000000,,2013-03-24 15:22:00,
2013-03-24 10:33:00,26.0,19.0,-100.00,NE,45,5.0,9.0,76,0.00,,,0.06,80.000000,,2013-03-24 15:33:00,
2013-03-24 11:03:00,27.0,21.0,-100.00,NE,45,6.0,9.0,79,0.00,,,0.06,164.000000,,2013-03-24 16:03:00,
2013-03-24 11:12:00,27.0,21.0,-100.00,NE,45,6.0,9.0,79,0.00,,,0.06,164.000000,,2013-03-24 16:12:00,
2013-03-24 11:23:00,27.0,21.0,-100.00,NE,45,6.0,9.0,79,0.00,,,0.06,164.000000,,2013-03-24 16:23:00,
2013-03-24 11:33:00,27.0,21.0,-100.00,NE,45,6.0,9.0,79,0.00,,,0.06,164.000000,,2013-03-24 16:33:00,
2013-03-24 12:02:00,28.0,22.0,-100.00,ENE,57,5.0,10.0,78,0.00,,,0.06,193.000000,,2013-03-24 17:02:00,
2013-03-24 12:12:00,28.0,22.0,-100.00,ENE,57,5.0,10.0,78,0.00,,,0.06,193.000000,,2013-03-24 17:12:00,
2013-03-24 12:23:00,28.0,22.0,-100.00,ENE,57,5.0,10.0,78,0.00,,,0.06,193.000000,,2013-03-24 17:23:00,
2013-03-24 12:33:00,28.0,22.0,-100.00,ENE,57,5.0,10.0,78,0.00,,,0.06,193.000000,,2013-03-24 17:33:00,
2013-03-24 13:03:00,29.0,21.0,-100.00,NE,56,7.0,12.0,73,0.00,,,0.04,224.000000,,2013-03-24 18:03:00,
2013-03-24 13:12:00,29.0,21.0,-100.00,NE,56,7.0,12.0,73,0.00,,,0.04,224.000000,,2013-03-24 18:12:00,
2013-03-24 13:22:00,29.0,21.0,-100.00,NE,56,7.0,12.0,73,0.00,,,0.04,224.000000,,2013-03-24 18:22:00,
2013-03-24 13:32:00,29.0,21.0,-100.00,NE,56,7.0,12.0,73,0.00,,,0.04,224.000000,,2013-03-24 18:32:00,
2013-03-24 14:02:00,30.0,20.0,-100.00,ENE,63,10.0,15.0,65,0.00,,,0.03,283.000000,,2013-03-24 19:02:00,
2013-03-24 14:12:00,30.0,20.0,-100.00,ENE,63,10.0,15.0,65,0.00,,,0.03,283.000000,,2013-03-24 19:12:00,
2013-03-24 14:22:00,30.0,20.0,-100.00,ENE,63,10.0,15.0,65,0.00,,,0.03,283.000000,,2013-03-24 19:22:00,
2013-03-24 14:32:00,30.0,20.0,-100.00,ENE,63,10.0,15.0,65,0.00,,,0.03,283.000000,,2013-03-24 19:32:00,
2013-03-24 15:03:00,32.0,20.0,-100.00,ENE,60,9.0,18.0,61,0.00,,,0.01,304.000000,,2013-03-24 20:03:00,
2013-03-24 15:12:00,32.0,20.0,-100.00,ENE,60,9.0,18.0,61,0.00,,,0.01,304.000000,,2013-03-24 20:12:00,
2013-03-24 15:22:00,32.0,20.0,-100.00,ENE,60,9.0,18.0,61,0.00,,,0.01,304.000000,,2013-03-24 20:22:00,
2013-03-24 15:32:00,32.0,20.0,-100.00,ENE,60,9.0,18.0,61,0.00,,,0.01,304.000000,,2013-03-24 20:32:00,
2013-03-24 16:02:00,30.0,19.0,-100.00,NE,53,9.0,17.0,62,0.00,,,0.01,278.000000,,2013-03-24 21:02:00,
2013-03-24 16:12:00,30.0,19.0,-100.00,NE,53,9.0,17.0,62,0.00,,,0.01,278.000000,,2013-03-24 21:12:00,
2013-03-24 16:22:00,30.0,19.0,-100.00,NE,53,9.0,17.0,62,0.00,,,0.01,278.000000,,2013-03-24 21:22:00,
2013-03-24 16:33:00,30.0,19.0,-100.00,NE,53,9.0,17.0,62,0.00,,,0.01,278.000000,,2013-03-24 21:33:00,
2013-03-24 17:03:00,29.0,18.0,-100.00,NE,56,8.0,18.0,63,0.00,,,0.01,206.000000,,2013-03-24 22:03:00,
2013-03-24 17:13:00,29.0,18.0,-100.00,NE,56,8.0,18.0,63,0.00,,,0.01,206.000000,,2013-03-24 22:13:00,
2013-03-24 17:23:00,29.0,18.0,-100.00,NE,56,8.0,18.0,63,0.00,,,0.01,206.000000,,2013-03-24 22:23:00,
2013-03-24 17:33:00,29.0,18.0,-100.00,NE,56,8.0,18.0,63,0.00,,,0.01,206.000000,,2013-03-24 22:33:00,
2013-03-24 18:03:00,27.0,18.0,-100.00,NE,52,8.0,15.0,68,0.00,,,0.00,127.000000,,2013-03-24 23:03:00,
2013-03-24 18:12:00,27.0,18.0,-100.00,NE,52,8.0,15.0,68,0.00,,,0.00,127.000000,,2013-03-24 23:12:00,
2013-03-24 18:22:00,27.0,18.0,-100.00,NE,52,8.0,15.0,68,0.00,,,0.00,127.000000,,2013-03-24 23:22:00,
2013-03-24 18:32:00,27.0,18.0,-100.00,NE,52,8.0,15.0,68,0.00,,,0.00,127.000000,,2013-03-24 23:32:00,
2013-03-24 19:02:00,25.0,15.0,-100.00,NE,50,9.0,16.0,66,0.00,,,0.00,42.000000,,2013-03-25 00:02:00,
2013-03-24 19:12:00,25.0,15.0,-100.00,NE,50,9.0,16.0,66,0.00,,,0.00,42.000000,,2013-03-25 00:12:00,
2013-03-24 19:22:00,25.0,15.0,-100.00,NE,50,9.0,16.0,66,0.00,,,0.00,42.000000,,2013-03-25 00:22:00,
2013-03-24 19:32:00,25.0,15.0,-100.00,NE,50,9.0,16.0,66,0.00,,,0.00,42.000000,,2013-03-25 00:32:00,
2013-03-24 20:02:00,25.0,17.0,-100.00,NNE,27,7.0,11.0,72,0.00,,,0.00,6.000000,,2013-03-25 01:02:00,
2013-03-24 20:12:00,25.0,17.0,-100.00,NNE,27,7.0,11.0,72,0.00,,,0.00,6.000000,,2013-03-25 01:12:00,
2013-03-24 20:22:00,25.0,17.0,-100.00,NNE,27,7.0,11.0,72,0.00,,,0.00,6.000000,,2013-03-25 01:22:00,
2013-03-24 20:32:00,25.0,17.0,-100.00,NNE,27,7.0,11.0,72,0.00,,,0.00,6.000000,,2013-03-25 01:32:00,
2013-03-24 21:02:00,23.0,17.0,-100.00,NNE,28,5.0,10.0,79,0.00,,,0.00,1.000000,,2013-03-25 02:02:00,
2013-03-24 21:12:00,23.0,17.0,-100.00,NNE,28,5.0,10.0,79,0.00,,,0.00,1.000000,,2013-03-25 02:12:00,
2013-03-24 21:22:00,23.0,17.0,-100.00,NNE,28,5.0,10.0,79,0.00,,,0.00,1.000000,,2013-03-25 02:22:00,
2013-03-24 21:32:00,23.0,17.0,-100.00,NNE,28,5.0,10.0,79,0.00,,,0.00,1.000000,,2013-03-25 02:32:00,
2013-03-24 22:02:00,21.0,16.0,-100.00,NNE,17,4.0,8.0,81,0.00,,,0.00,1.000000,,2013-03-25 03:02:00,
2013-03-24 22:13:00,21.0,16.0,-100.00,NNE,17,4.0,8.0,81,0.00,,,0.00,1.000000,,2013-03-25 03:13:00,
2013-03-24 22:22:00,21.0,16.0,-100.00,NNE,17,4.0,8.0,81,0.00,,,0.00,1.000000,,2013-03-25 03:22:00,
2013-03-24 22:33:00,21.0,16.0,-100.00,NNE,17,4.0,8.0,81,0.00,,,0.00,1.000000,,2013-03-25 03:33:00,
2013-03-24 23:02:00,18.0,15.0,-100.00,NNW,344,2.0,4.0,87,0.00,,,0.00,1.000000,,2013-03-25 04:02:00,
2013-03-24 23:12:00,18.0,15.0,-100.00,NNW,344,2.0,4.0,87,0.00,,,0.00,1.000000,,2013-03-25 04:12:00,
2013-03-24 23:22:00,18.0,15.0,-100.00,NNW,344,2.0,4.0,87,0.00,,,0.00,1.000000,,2013-03-25 04:22:00,
2013-03-24 23:33:00,18.0,15.0,-100.00,NNW,344,2.0,4.0,87,0.00,,,0.00,1.000000,,2013-03-25 04:33:00,